createdAt,value
2018-04-26T00:01:37.531Z,79.23
2018-04-26T00:04:10.233Z,79.27
2018-04-26T00:06:37.802Z,79.20
2018-04-26T00:09:05.307Z,79.44
2018-04-26T00:11:32.890Z,79.55
2018-04-26T00:14:00.465Z,79.50
2018-04-26T00:16:28.645Z,79.56
2018-04-26T00:18:58.232Z,79.51
2018-04-26T00:21:30.500Z,79.67
2018-04-26T00:23:58.077Z,79.74
2018-04-26T00:26:25.634Z,79.69
2018-04-26T00:28:53.160Z,79.80
2018-04-26T00:31:20.767Z,79.71
2018-04-26T00:33:49.703Z,79.75
2018-04-26T00:36:19.340Z,80.09
2018-04-26T00:38:51.239Z,80.23
2018-04-26T00:41:18.743Z,80.25
2018-04-26T00:43:46.336Z,80.20
2018-04-26T00:46:13.868Z,80.13
2018-04-26T00:48:41.455Z,80.24
2018-04-26T00:51:11.380Z,80.43
2018-04-26T00:53:38.953Z,80.61
2018-04-26T00:56:07.015Z,80.53
2018-04-26T00:58:34.547Z,80.60
2018-04-26T01:01:02.104Z,80.56
2018-04-26T01:03:29.691Z,80.55
2018-04-26T01:05:57.258Z,80.56
2018-04-26T01:08:29.683Z,80.17
2018-04-26T01:10:58.388Z,79.72
2018-04-26T01:13:27.171Z,79.30
2018-04-26T01:15:54.691Z,79.10
2018-04-26T01:18:22.192Z,79.05
2018-04-26T01:20:49.731Z,79.18
2018-04-26T01:23:17.259Z,79.33
2018-04-26T01:25:47.240Z,79.50
2018-04-26T01:28:17.439Z,79.52
2018-04-26T01:30:47.389Z,79.47
2018-04-26T01:33:14.932Z,79.47
2018-04-26T01:35:42.460Z,79.38
2018-04-26T01:38:11.412Z,79.43
2018-04-26T01:40:38.955Z,79.57
2018-04-26T01:43:07.681Z,79.71
2018-04-26T01:45:37.956Z,79.82
2018-04-26T01:48:10.546Z,80.09
2018-04-26T01:50:38.983Z,80.02
2018-04-26T01:53:06.536Z,79.85
2018-04-26T01:55:34.179Z,79.56
2018-04-26T01:58:01.711Z,79.63
2018-04-26T02:00:30.832Z,79.80
2018-04-26T02:02:58.928Z,79.86
2018-04-26T02:05:27.532Z,80.09
2018-04-26T02:07:55.079Z,80.12
2018-04-26T02:10:22.614Z,80.22
2018-04-26T02:12:50.136Z,80.52
2018-04-26T02:15:17.688Z,80.65
2018-04-26T02:17:45.752Z,81.01
2018-04-26T02:20:14.616Z,81.04
2018-04-26T02:22:43.090Z,80.85
2018-04-26T02:25:10.619Z,80.63
2018-04-26T02:27:38.168Z,80.55
2018-04-26T02:30:05.700Z,80.61
2018-04-26T02:32:33.343Z,80.41
2018-04-26T02:35:01.996Z,80.02
2018-04-26T02:37:35.943Z,79.92
2018-04-26T02:40:06.343Z,79.68
2018-04-26T02:42:33.903Z,79.63
2018-04-26T02:45:01.456Z,79.66
2018-04-26T02:47:28.971Z,79.64
2018-04-26T02:49:56.605Z,79.71
2018-04-26T02:52:25.849Z,80.16
2018-04-26T02:54:57.686Z,80.17
2018-04-26T02:57:26.200Z,80.12
2018-04-26T02:59:53.788Z,80.34
2018-04-26T03:02:21.292Z,80.26
2018-04-26T03:04:48.870Z,80.16
2018-04-26T03:07:16.452Z,80.25
2018-04-26T03:09:44.241Z,80.45
2018-04-26T03:12:13.277Z,80.50
2018-04-26T03:14:43.312Z,80.72
2018-04-26T03:17:10.843Z,80.72
2018-04-26T03:19:38.394Z,80.58
2018-04-26T03:22:06.003Z,80.22
2018-04-26T03:24:33.567Z,80.08
2018-04-26T03:30:15.125Z,79.75
2018-04-26T03:32:46.321Z,79.78
2018-04-26T03:35:13.871Z,80.07
2018-04-26T03:37:41.386Z,80.19
2018-04-26T03:40:08.947Z,80.24
2018-04-26T03:42:36.479Z,79.95
2018-04-26T03:45:04.180Z,79.88
2018-04-26T03:47:33.274Z,79.46
2018-04-26T03:50:03.157Z,79.37
2018-04-26T03:52:30.699Z,79.43
2018-04-26T03:54:58.296Z,79.36
2018-04-26T03:57:25.867Z,79.47
2018-04-26T04:00:06.029Z,79.67
2018-04-26T04:02:47.046Z,79.57
2018-04-26T04:08:28.604Z,79.62
2018-04-26T04:11:05.947Z,79.84
2018-04-26T04:13:33.502Z,79.69
2018-04-26T04:16:01.106Z,79.64
2018-04-26T04:18:30.052Z,79.43
2018-04-26T04:20:58.257Z,78.87
2018-04-26T04:23:27.332Z,78.44
2018-04-26T04:25:54.845Z,78.25
2018-04-26T04:28:22.400Z,78.16
2018-04-26T04:30:49.911Z,78.11
2018-04-26T04:33:17.565Z,78.17
2018-04-26T04:35:45.305Z,78.29
2018-04-26T04:38:13.942Z,78.33
2018-04-26T04:40:42.316Z,78.19
2018-04-26T04:43:12.738Z,78.02
2018-04-26T04:45:40.283Z,78.06
2018-04-26T04:48:07.883Z,78.30
2018-04-26T04:50:35.425Z,78.75
2018-04-26T04:53:03.012Z,78.74
2018-04-26T04:55:31.404Z,78.82
2018-04-26T04:58:05.728Z,78.97
2018-04-26T05:00:34.361Z,79.50
2018-04-26T05:03:01.923Z,79.73
2018-04-26T05:05:29.472Z,79.86
2018-04-26T05:07:57.019Z,79.70
2018-04-26T05:10:28.210Z,79.47
2018-04-26T05:12:58.431Z,79.29
2018-04-26T05:15:26.915Z,79.13
2018-04-26T05:17:55.608Z,79.15
2018-04-26T05:20:23.123Z,79.43
2018-04-26T05:22:50.716Z,79.55
2018-04-26T05:25:18.387Z,78.99
2018-04-26T05:27:46.111Z,78.76
2018-04-26T05:30:17.769Z,78.51
2018-04-26T05:32:45.763Z,78.84
2018-04-26T05:35:14.053Z,78.88
2018-04-26T05:37:41.598Z,78.96
2018-04-26T05:40:09.155Z,79.24
2018-04-26T05:42:36.711Z,79.66
2018-04-26T05:45:05.276Z,79.90
2018-04-26T05:47:35.436Z,80.10
2018-04-26T05:50:03.634Z,80.46
2018-04-26T05:52:31.171Z,80.35
2018-04-26T05:54:58.783Z,80.40
2018-04-26T05:57:26.310Z,80.32
2018-04-26T05:59:53.943Z,80.72
2018-04-26T06:02:25.943Z,80.76
2018-04-26T06:04:53.972Z,80.47
2018-04-26T06:07:25.961Z,80.44
2018-04-26T06:09:53.501Z,80.30
2018-04-26T06:12:21.074Z,80.11
2018-04-26T06:14:48.643Z,79.89
2018-04-26T06:17:16.343Z,79.82
2018-04-26T06:19:44.064Z,79.84
2018-04-26T06:22:14.189Z,79.84
2018-04-26T06:24:42.667Z,79.90
2018-04-26T06:27:10.219Z,79.92
2018-04-26T06:29:37.791Z,79.75
2018-04-26T06:32:05.350Z,79.37
2018-04-26T06:34:32.943Z,78.98
2018-04-26T06:42:15.409Z,79.26
2018-04-26T06:44:42.939Z,79.59
2018-04-26T06:47:10.515Z,78.78
2018-04-26T06:49:38.187Z,78.47
2018-04-26T06:52:05.760Z,78.15
2018-04-26T06:54:34.679Z,78.03
2018-04-26T06:57:04.492Z,78.09
2018-04-26T07:02:08.797Z,77.70
2018-04-26T07:04:36.375Z,77.46
2018-04-26T07:07:04.059Z,77.32
2018-04-26T07:09:32.360Z,76.69
2018-04-26T07:12:02.571Z,76.71
2018-04-26T07:14:31.071Z,77.01
2018-04-26T07:16:59.561Z,77.28
2018-04-26T07:19:27.115Z,77.36
2018-04-26T07:21:54.864Z,77.00
2018-04-26T07:24:22.375Z,77.10
2018-04-26T07:26:50.027Z,76.86
2018-04-26T07:29:22.607Z,76.98
2018-04-26T07:37:01.604Z,77.62
2018-04-26T07:39:29.154Z,77.55
2018-04-26T07:41:56.799Z,76.75
2018-04-26T07:50:02.133Z,76.10
2018-04-26T07:52:34.658Z,75.93
2018-04-26T07:55:02.307Z,76.27
2018-04-26T07:57:29.929Z,76.50
2018-04-26T07:59:57.525Z,76.31
2018-04-26T08:02:27.744Z,76.37
2018-04-26T08:10:29.549Z,75.23
2018-04-26T08:12:57.173Z,74.69
2018-04-26T08:15:24.712Z,74.53
2018-04-26T08:17:53.275Z,74.54
2018-04-26T08:20:26.027Z,74.66
2018-04-26T08:28:15.090Z,73.80
2018-04-26T08:30:43.602Z,73.38
2018-04-26T08:33:11.182Z,73.19
2018-04-26T08:35:42.053Z,73.08
2018-04-26T08:46:34.033Z,73.44
2018-04-26T08:49:01.686Z,73.57
2018-04-26T08:51:29.255Z,73.64
2018-04-26T09:04:29.491Z,73.28
2018-04-26T09:06:57.143Z,73.82
2018-04-26T09:09:24.723Z,73.81
2018-04-26T09:19:41.074Z,72.22
2018-04-26T09:22:08.623Z,72.35
2018-04-26T09:24:36.219Z,71.10
2018-04-26T09:27:03.763Z,70.34
2018-04-26T09:29:34.602Z,70.13
2018-04-26T09:34:35.032Z,70.14
2018-04-26T09:37:02.639Z,70.27
2018-04-26T09:39:30.289Z,71.01
2018-04-26T09:41:57.813Z,71.31
2018-04-26T09:44:25.501Z,70.79
2018-04-26T09:46:55.549Z,70.97
2018-04-26T09:49:23.836Z,70.65
2018-04-26T09:51:54.755Z,70.34
2018-04-26T09:54:22.379Z,70.36
2018-04-26T09:56:50.011Z,69.96
2018-04-26T09:59:18.227Z,70.03
2018-04-26T10:01:45.872Z,69.82
2018-04-26T10:04:15.610Z,69.49
2018-04-26T10:06:50.531Z,69.90
2018-04-26T10:09:19.160Z,69.95
2018-04-26T10:11:46.779Z,70.12
2018-04-26T10:14:14.352Z,70.47
2018-04-26T10:16:41.948Z,67.13
2018-04-26T10:19:09.541Z,67.75
2018-04-26T10:21:39.862Z,67.64
2018-04-26T10:26:49.853Z,67.60
2018-04-26T10:29:17.971Z,68.18
2018-04-26T10:31:45.524Z,68.94
2018-04-26T10:34:13.147Z,68.54
2018-04-26T10:36:41.715Z,68.55
2018-04-26T10:39:10.087Z,68.15
2018-04-26T10:41:43.447Z,67.74
2018-04-26T10:44:11.785Z,67.53
2018-04-26T10:46:39.367Z,67.66
2018-04-26T10:49:07.850Z,67.58
2018-04-26T10:51:35.441Z,68.20
2018-04-26T10:54:03.072Z,67.74
2018-04-26T10:56:34.766Z,68.74
2018-04-26T10:59:06.543Z,68.10
2018-04-26T11:04:19.537Z,68.00
2018-04-26T11:06:47.208Z,69.29
2018-04-26T11:09:14.836Z,69.70
2018-04-26T11:11:43.623Z,69.48
2018-04-26T11:14:11.227Z,69.08
2018-04-26T11:16:42.095Z,68.85
2018-04-26T11:19:10.757Z,68.27
2018-04-26T11:21:39.092Z,68.42
2018-04-26T11:24:06.626Z,68.92
2018-04-26T11:26:35.073Z,67.91
2018-04-26T11:29:07.258Z,67.28
2018-04-26T11:31:37.994Z,67.19
2018-04-26T11:34:07.359Z,66.25
2018-04-26T11:36:35.463Z,66.48
2018-04-26T11:39:03.124Z,67.09
2018-04-26T11:41:30.752Z,66.62
2018-04-26T11:43:58.344Z,65.72
2018-04-26T11:46:27.628Z,66.22
2018-04-26T11:48:58.541Z,64.76
2018-04-26T11:54:13.744Z,63.77
2018-04-26T11:56:44.875Z,63.31
2018-04-26T11:59:12.462Z,63.40
2018-04-26T12:01:40.035Z,62.98
2018-04-26T12:06:45.938Z,62.68
2018-04-26T12:09:14.852Z,62.73
2018-04-26T12:11:42.528Z,62.22
2018-04-26T12:14:10.086Z,61.88
2018-04-26T12:16:37.646Z,62.73
2018-04-26T12:19:05.210Z,62.26
2018-04-26T12:24:11.571Z,61.95
2018-04-26T12:26:43.495Z,62.66
2018-04-26T12:29:11.078Z,61.91
2018-04-26T12:31:38.705Z,62.72
2018-04-26T12:34:06.255Z,62.10
2018-04-26T12:36:33.881Z,62.13
2018-04-26T12:39:03.936Z,62.20
2018-04-26T12:41:33.885Z,61.63
2018-04-26T12:44:05.744Z,61.63
2018-04-26T12:46:33.335Z,60.70
2018-04-26T12:49:00.918Z,61.07
2018-04-26T12:51:28.591Z,60.38
2018-04-26T12:53:56.152Z,60.19
2018-04-26T12:56:30.199Z,61.24
2018-04-26T12:59:02.767Z,61.07
2018-04-26T13:01:34.637Z,61.50
2018-04-26T13:04:02.172Z,61.62
2018-04-26T13:06:29.717Z,62.03
2018-04-26T13:08:57.237Z,61.93
2018-04-26T13:11:24.852Z,62.14
2018-04-26T13:13:53.592Z,61.97
2018-04-26T13:16:23.669Z,61.60
2018-04-26T13:18:51.368Z,62.68
2018-04-26T13:21:18.922Z,61.64
2018-04-26T13:23:46.507Z,61.26
2018-04-26T13:26:14.113Z,60.84
2018-04-26T13:28:41.876Z,60.72
2018-04-26T13:31:13.847Z,61.40
2018-04-26T13:33:42.014Z,60.62
2018-04-26T13:36:11.112Z,60.04
2018-04-26T13:38:38.740Z,59.99
2018-04-26T13:41:06.408Z,58.92
2018-04-26T13:43:33.950Z,59.81
2018-04-26T13:46:01.548Z,60.16
2018-04-26T13:48:30.434Z,60.00
2018-04-26T13:50:59.431Z,58.80
2018-04-26T13:53:27.318Z,58.45
2018-04-26T13:55:54.849Z,58.99
2018-04-26T13:58:22.514Z,56.66
2018-04-26T14:00:50.117Z,56.62
2018-04-26T14:03:17.667Z,56.28
2018-04-26T14:05:46.464Z,55.93
2018-04-26T14:08:15.739Z,55.95
2018-04-26T14:10:43.447Z,56.91
2018-04-26T14:13:11.067Z,57.53
2018-04-26T14:15:38.601Z,57.45
2018-04-26T14:18:06.139Z,57.52
2018-04-26T14:20:33.810Z,56.80
2018-04-26T14:23:03.867Z,58.13
2018-04-26T14:25:31.652Z,57.68
2018-04-26T14:27:59.311Z,57.26
2018-04-26T14:30:26.815Z,57.20
2018-04-26T14:32:54.383Z,56.96
2018-04-26T14:35:21.955Z,56.98
2018-04-26T14:37:49.611Z,56.63
2018-04-26T14:40:19.868Z,57.43
2018-04-26T14:42:50.393Z,56.55
2018-04-26T14:45:26.405Z,57.04
2018-04-26T14:47:54.095Z,56.28
2018-04-26T14:50:21.651Z,55.84
2018-04-26T14:52:49.226Z,56.09
2018-04-26T14:55:16.917Z,55.01
2018-04-26T14:57:50.008Z,55.50
2018-04-26T15:00:19.722Z,55.59
2018-04-26T15:02:50.055Z,56.17
2018-04-26T15:05:17.620Z,56.34
2018-04-26T15:07:45.240Z,56.59
2018-04-26T15:10:13.823Z,56.70
2018-04-26T15:15:18.101Z,56.54
2018-04-26T15:17:46.492Z,56.50
2018-04-26T15:20:17.841Z,56.07
2018-04-26T15:22:45.363Z,55.81
2018-04-26T15:25:12.919Z,55.17
2018-04-26T15:27:40.439Z,54.53
2018-04-26T15:30:08.041Z,54.25
2018-04-26T15:32:35.900Z,54.43
2018-04-26T15:35:03.468Z,54.30
2018-04-26T15:37:32.378Z,55.03
2018-04-26T15:40:00.627Z,55.24
2018-04-26T15:42:28.182Z,55.35
2018-04-26T15:44:55.750Z,55.77
2018-04-26T15:47:23.380Z,56.08
2018-04-26T15:49:51.921Z,56.17
2018-04-26T15:52:31.181Z,56.45
2018-04-26T15:58:32.222Z,55.76
2018-04-26T16:01:12.039Z,55.82
2018-04-26T16:03:51.469Z,56.09
2018-04-26T16:06:42.540Z,56.28
2018-04-26T16:09:22.840Z,55.97
2018-04-26T16:12:06.182Z,56.03
2018-04-26T16:14:45.491Z,55.41
2018-04-26T16:17:30.574Z,55.44
2018-04-26T16:20:15.614Z,56.37
2018-04-26T16:23:06.012Z,56.76
2018-04-26T16:25:49.874Z,57.06
2018-04-26T16:28:34.920Z,55.03
2018-04-26T16:31:20.147Z,56.32
2018-04-26T16:34:05.147Z,57.45
2018-04-26T16:36:44.589Z,57.51
2018-04-26T16:39:27.204Z,58.29
2018-04-26T16:41:55.793Z,58.48
2018-04-26T16:44:23.527Z,58.85
2018-04-26T16:46:52.068Z,59.26
2018-04-26T16:49:20.513Z,59.96
2018-04-26T16:51:48.038Z,60.35
2018-04-26T16:54:15.631Z,61.81
2018-04-26T16:56:43.649Z,61.73
2018-04-26T16:59:11.424Z,61.92
2018-04-26T17:01:39.026Z,61.63
2018-04-26T17:04:06.691Z,62.35
2018-04-26T17:06:34.331Z,62.28
2018-04-26T17:09:01.826Z,62.49
2018-04-26T17:11:29.387Z,62.50
2018-04-26T17:14:01.112Z,62.69
2018-04-26T17:16:30.854Z,62.84
2018-04-26T17:18:59.741Z,63.12
2018-04-26T17:21:27.307Z,63.36
2018-04-26T17:23:54.870Z,63.27
2018-04-26T17:26:22.416Z,63.52
2018-04-26T17:28:49.998Z,64.07
2018-04-26T17:31:17.953Z,64.64
2018-04-26T17:33:45.683Z,65.43
2018-04-26T17:36:13.768Z,65.50
2018-04-26T17:38:41.308Z,65.40
2018-04-26T17:41:08.889Z,65.35
2018-04-26T17:43:36.425Z,65.13
2018-04-26T17:46:03.991Z,65.08
2018-04-26T17:48:31.631Z,65.35
2018-04-26T17:50:59.179Z,65.74
2018-04-26T17:53:26.791Z,65.65
2018-04-26T17:55:54.356Z,65.79
2018-04-26T17:58:21.969Z,66.31
2018-04-26T18:00:49.470Z,66.44
2018-04-26T18:03:17.033Z,66.26
2018-04-26T18:05:44.702Z,66.53
2018-04-26T18:08:12.528Z,67.06
2018-04-26T18:10:41.739Z,67.17
2018-04-26T18:13:10.529Z,67.26
2018-04-26T18:15:38.112Z,67.22
2018-04-26T18:18:05.627Z,67.09
2018-04-26T18:20:33.196Z,67.00
2018-04-26T18:23:01.655Z,67.14
2018-04-26T18:25:31.771Z,67.11
2018-04-26T18:28:03.749Z,67.60
2018-04-26T18:30:33.846Z,67.74
2018-04-26T18:33:01.476Z,67.70
2018-04-26T18:35:29.123Z,67.75
2018-04-26T18:37:56.735Z,67.82
2018-04-26T18:40:25.996Z,67.69
2018-04-26T18:42:54.159Z,67.96
2018-04-26T18:45:22.685Z,67.84
2018-04-26T18:47:51.895Z,68.09
2018-04-26T18:50:19.431Z,68.48
2018-04-26T18:52:46.966Z,68.66
2018-04-26T18:55:14.526Z,68.62
2018-04-26T18:57:43.521Z,68.58
2018-04-26T19:00:13.777Z,68.62
2018-04-26T19:02:41.523Z,68.91
2018-04-26T19:05:09.044Z,69.04
2018-04-26T19:07:36.614Z,69.49
2018-04-26T19:10:04.136Z,69.87
2018-04-26T19:12:31.730Z,69.64
2018-04-26T19:14:59.382Z,69.79
2018-04-26T19:17:27.081Z,69.80
2018-04-26T19:19:55.538Z,69.88
2018-04-26T19:22:23.123Z,70.11
2018-04-26T19:24:50.680Z,70.25
2018-04-26T19:27:18.203Z,70.37
2018-04-26T19:29:45.833Z,70.38
2018-04-26T19:32:13.630Z,70.51
2018-04-26T19:34:41.956Z,70.50
2018-04-26T19:37:09.669Z,70.50
2018-04-26T19:39:37.257Z,70.50
2018-04-26T19:42:04.771Z,70.51
2018-04-26T19:44:32.338Z,70.43
2018-04-26T19:46:59.912Z,70.43
2018-04-26T19:49:27.503Z,70.47
2018-04-26T19:51:55.229Z,70.62
2018-04-26T19:54:23.868Z,70.71
2018-04-26T19:56:51.416Z,70.78
2018-04-26T19:59:18.950Z,70.91
2018-04-26T20:01:46.495Z,71.03
2018-04-26T20:04:14.100Z,71.12
2018-04-26T20:06:41.960Z,71.26
2018-04-26T20:09:10.545Z,71.30
2018-04-26T20:11:38.519Z,71.36
2018-04-26T20:14:06.075Z,71.43
2018-04-26T20:16:34.714Z,71.44
2018-04-26T20:19:02.255Z,71.41
2018-04-26T20:21:29.810Z,71.45
2018-04-26T20:23:57.761Z,71.51
2018-04-26T20:26:26.289Z,71.50
2018-04-26T20:28:54.007Z,71.50
2018-04-26T20:31:21.599Z,71.51
2018-04-26T20:33:49.171Z,71.58
2018-04-26T20:36:16.721Z,71.69
2018-04-26T20:38:44.288Z,71.71
2018-04-26T20:41:11.851Z,71.73
2018-04-26T20:43:39.472Z,71.74
2018-04-26T20:46:07.877Z,71.75
2018-04-26T20:48:40.906Z,71.77
2018-04-26T20:51:08.429Z,71.79
2018-04-26T20:53:35.975Z,71.82
2018-04-26T20:56:03.516Z,71.85
2018-04-26T20:58:31.145Z,71.84
2018-04-26T21:00:59.513Z,71.83
2018-04-26T21:03:27.136Z,71.85
2018-04-26T21:05:54.837Z,71.84
2018-04-26T21:08:22.401Z,71.85
2018-04-26T21:10:49.930Z,71.77
2018-04-26T21:13:17.483Z,71.72
2018-04-26T21:15:45.348Z,71.67
2018-04-26T21:18:12.922Z,71.67
2018-04-26T21:20:40.532Z,71.73
2018-04-26T21:23:08.239Z,71.80
2018-04-26T21:25:35.771Z,71.88
2018-04-26T21:28:03.302Z,71.91
2018-04-26T21:30:30.864Z,71.98
2018-04-26T21:32:59.324Z,72.05
2018-04-26T21:35:27.045Z,72.12
2018-04-26T21:37:55.268Z,72.17
2018-04-26T21:40:22.908Z,72.23
2018-04-26T21:42:50.419Z,72.26
2018-04-26T21:45:17.930Z,72.26
2018-04-26T21:47:45.481Z,72.26
2018-04-26T21:50:18.490Z,72.31
2018-04-26T21:52:51.811Z,72.36
2018-04-26T21:55:26.079Z,72.34
2018-04-26T21:57:59.421Z,72.35
2018-04-26T22:00:32.536Z,72.41
2018-04-26T22:02:59.494Z,72.45
2018-04-26T22:05:27.962Z,72.47
2018-04-26T22:07:55.622Z,72.51
2018-04-26T22:10:24.285Z,72.52
2018-04-26T22:12:51.921Z,72.52
2018-04-26T22:15:19.545Z,72.54
2018-04-26T22:17:47.079Z,72.58
2018-04-26T22:20:14.962Z,72.63
2018-04-26T22:22:42.563Z,72.67
2018-04-26T22:25:10.255Z,72.72
2018-04-26T22:27:38.047Z,72.73
2018-04-26T22:30:05.801Z,72.76
2018-04-26T22:32:33.494Z,72.76
2018-04-26T22:35:01.038Z,72.79
2018-04-26T22:37:28.554Z,72.81
2018-04-26T22:39:56.083Z,72.87
2018-04-26T22:42:23.782Z,72.92
2018-04-26T22:44:51.461Z,72.98
2018-04-26T22:47:19.262Z,73.04
2018-04-26T22:49:46.880Z,73.14
2018-04-26T22:52:14.415Z,73.18
2018-04-26T22:54:41.951Z,73.20
2018-04-26T22:57:09.495Z,73.31
2018-04-26T22:59:37.887Z,73.37
2018-04-26T23:02:06.263Z,73.47
2018-04-26T23:04:33.987Z,73.58
2018-04-26T23:07:01.921Z,73.61
2018-04-26T23:09:29.458Z,73.71
2018-04-26T23:11:57.008Z,73.77
2018-04-26T23:14:24.629Z,73.86
2018-04-26T23:16:52.258Z,73.92
2018-04-26T23:19:19.931Z,73.96
2018-04-26T23:21:47.479Z,74.07
2018-04-26T23:24:17.523Z,74.19
2018-04-26T23:26:45.052Z,74.29
2018-04-26T23:29:12.609Z,74.44
2018-04-26T23:31:40.216Z,74.57
2018-04-26T23:42:54.907Z,75.07
2018-04-26T23:45:22.485Z,75.26
2018-04-26T23:47:50.064Z,75.54
2018-04-26T23:59:26.876Z,76.56
